Observation data for Fluvanna on 12/13/2019      Previous  Date       Current Mesonet Observations  Soil Data  Daily Summary Page  Observations in Plain Language
KFVS 130600Z 24006KT 09/00 A2997 RMK A01 T00860004  RH  057%=      5-min Rain = 0
KFVS 130605Z 25006KT 09/01 A2997 RMK A01 T00850006  RH  058%=      5-min Rain = 0
KFVS 130610Z 25006KT 08/01 A2997 RMK A01 T00840006  RH  059%=      5-min Rain = 0
KFVS 130615Z 24006KT 08/01 A2997 RMK A01 T00810005  RH  060%=      5-min Rain = 0
KFVS 130620Z 25005KT 08/01 A2997 RMK A01 T00800005  RH  060%=      5-min Rain = 0
KFVS 130625Z 24006KT 08/00 A2996 RMK A01 T00760004  RH  061%=      5-min Rain = 0
KFVS 130630Z 24006KT 08/00 A2996 RMK A01 T00760004  RH  061%=      5-min Rain = 0
KFVS 130635Z 25006KT 08/01 A2996 RMK A01 T00780007  RH  062%=      5-min Rain = 0
KFVS 130640Z 25005KT 08/01 A2995 RMK A01 T00790007  RH  061%=      5-min Rain = 0
KFVS 130645Z 25007KT 08/01 A2995 RMK A01 T00810008  RH  061%=      5-min Rain = 0
KFVS 130650Z 26006KT 08/01 A2995 RMK A01 T00780007  RH  061%=      5-min Rain = 0
KFVS 130655Z 25005KT 07/01 A2995 RMK A01 T00740007  RH  063%=      5-min Rain = 0
KFVS 130700Z 24006KT 07/01 A2994 RMK A01 T00710005  RH  064%=      5-min Rain = 0
KFVS 130705Z 24007KT 07/01 A2994 RMK A01 T00690005  RH  065%=      5-min Rain = 0
KFVS 130710Z 24007KT 07/00 A2994 RMK A01 T00650004  RH  066%=      5-min Rain = 0
KFVS 130715Z 24007KT 06/01 A2994 RMK A01 T00640005  RH  067%=      5-min Rain = 0
KFVS 130720Z 25005KT 07/01 A2993 RMK A01 T00660005  RH  066%=      5-min Rain = 0
KFVS 130725Z 26004KT 07/01 A2993 RMK A01 T00690005  RH  065%=      5-min Rain = 0
KFVS 130730Z 24005KT 06/00 A2993 RMK A01 T00620004  RH  067%=      5-min Rain = 0
KFVS 130735Z 25004KT 06/00 A2993 RMK A01 T00600003  RH  068%=      5-min Rain = 0
KFVS 130740Z 28002KT 06/01 A2993 RMK A01 T00600005  RH  069%=      5-min Rain = 0
KFVS 130745Z 34002KT 06/00 A2993 RMK A01 T00610003  RH  067%=      5-min Rain = 0
KFVS 130750Z 02001KT 05/M00 A2993 RMK A01 T00501002  RH  070%=      5-min Rain = 0
KFVS 130755Z 04002KT 05/00 A2993 RMK A01 T00520000  RH  070%=      5-min Rain = 0
KFVS 130800Z 04002KT 05/M00 A2993 RMK A01 T00451004  RH  072%=      5-min Rain = 0
KFVS 130805Z 04001KT 05/00 A2994 RMK A01 T004600-0  RH  073%=      5-min Rain = 0
KFVS 130810Z 31001KT 05/00 A2994 RMK A01 T00520004  RH  072%=      5-min Rain = 0
KFVS 130815Z 30005KT 05/M00 A2994 RMK A01 T00531001  RH  069%=      5-min Rain = 0
KFVS 130820Z 28008KT 06/01 A2994 RMK A01 T00630008  RH  069%=      5-min Rain = 0
KFVS 130825Z 27009KT 08/01 A2994 RMK A01 T00750007  RH  063%=      5-min Rain = 0
KFVS 130830Z 28009KT 07/01 A2993 RMK A01 T00730006  RH  063%=      5-min Rain = 0
KFVS 130835Z 30007KT 06/00 A2993 RMK A01 T00640003  RH  066%=      5-min Rain = 0
KFVS 130840Z 29008KT 06/00 A2993 RMK A01 T00580003  RH  069%=      5-min Rain = 0
KFVS 130845Z 28009KT 07/01 A2993 RMK A01 T00670006  RH  066%=      5-min Rain = 0
KFVS 130850Z 28010KT 07/00 A2993 RMK A01 T00700004  RH  064%=      5-min Rain = 0
KFVS 130855Z 28011KT 07/00 A2993 RMK A01 T00700003  RH  063%=      5-min Rain = 0
KFVS 130900Z 29012G17KT 07/00 A2993 RMK A01 T00720003  RH  063%=      5-min Rain = 0
KFVS 130905Z 30014KT 08/00 A2993 RMK A01 T00830000  RH  057%=      5-min Rain = 0
KFVS 130910Z 30014KT 09/M00 A2993 RMK A01 T00851002  RH  055%=      5-min Rain = 0
KFVS 130915Z 30012KT 08/M00 A2993 RMK A01 T00821003  RH  055%=      5-min Rain = 0
KFVS 130920Z 31011KT 08/M00 A2993 RMK A01 T00821004  RH  055%=      5-min Rain = 0
KFVS 130925Z 31013KT 09/M01 A2993 RMK A01 T00891008  RH  051%=      5-min Rain = 0
KFVS 130930Z 31010KT 09/M01 A2993 RMK A01 T00881010  RH  050%=      5-min Rain = 0
KFVS 130935Z 31009G14KT 09/M01 A2993 RMK A01 T00861011  RH  051%=      5-min Rain = 0
KFVS 130940Z 31011KT 09/M01 A2993 RMK A01 T00891013  RH  049%=      5-min Rain = 0
KFVS 130945Z 32008G15KT 09/M02 A2993 RMK A01 T00891015  RH  049%=      5-min Rain = 0
KFVS 130950Z 33007KT 08/M01 A2993 RMK A01 T00841014  RH  050%=      5-min Rain = 0
KFVS 130955Z 32006KT 08/M02 A2993 RMK A01 T00781015  RH  052%=      5-min Rain = 0
KFVS 131000Z 32006KT 08/M01 A2993 RMK A01 T00761014  RH  053%=      5-min Rain = 0
KFVS 131005Z 32008KT 08/M01 A2993 RMK A01 T00771014  RH  053%=      5-min Rain = 0
KFVS 131010Z 32008KT 07/M02 A2992 RMK A01 T00741015  RH  054%=      5-min Rain = 0
KFVS 131015Z 33008KT 07/M02 A2992 RMK A01 T00691015  RH  056%=      5-min Rain = 0
KFVS 131020Z 34008KT 06/M02 A2992 RMK A01 T00571016  RH  060%=      5-min Rain = 0
KFVS 131025Z 33009KT 06/M01 A2992 RMK A01 T00601013  RH  060%=      5-min Rain = 0
KFVS 131030Z 33009KT 06/M02 A2992 RMK A01 T00581015  RH  060%=      5-min Rain = 0
KFVS 131035Z 33009KT 06/M02 A2992 RMK A01 T00611016  RH  059%=      5-min Rain = 0
KFVS 131040Z 34008KT 06/M02 A2992 RMK A01 T00551017  RH  060%=      5-min Rain = 0
KFVS 131045Z 34009KT 05/M02 A2992 RMK A01 T00541015  RH  062%=      5-min Rain = 0
KFVS 131050Z 34009KT 06/M01 A2992 RMK A01 T00591014  RH  060%=      5-min Rain = 0
KFVS 131055Z 33011KT 06/M01 A2991 RMK A01 T00641014  RH  058%=      5-min Rain = 0
KFVS 131100Z 34009KT 06/M01 A2991 RMK A01 T00621014  RH  059%=      5-min Rain = 0
KFVS 131105Z 33009KT 06/M01 A2992 RMK A01 T00601014  RH  060%=      5-min Rain = 0
KFVS 131110Z 35008KT 06/M01 A2991 RMK A01 T00561014  RH  061%=      5-min Rain = 0
KFVS 131115Z 33008KT 06/M01 A2992 RMK A01 T00551013  RH  062%=      5-min Rain = 0
KFVS 131120Z 33008KT 06/M01 A2992 RMK A01 T00551014  RH  062%=      5-min Rain = 0
KFVS 131125Z 32008KT 06/M01 A2992 RMK A01 T00581013  RH  061%=      5-min Rain = 0
KFVS 131130Z 32009KT 06/M01 A2991 RMK A01 T00611013  RH  059%=      5-min Rain = 0
KFVS 131135Z 33013KT 07/M02 A2992 RMK A01 T00681015  RH  056%=      5-min Rain = 0
KFVS 131140Z 31013KT 07/M02 A2992 RMK A01 T00701015  RH  055%=      5-min Rain = 0
KFVS 131145Z 31013KT 07/M02 A2992 RMK A01 T00721016  RH  054%=      5-min Rain = 0
KFVS 131150Z 31012KT 07/M02 A2992 RMK A01 T00741016  RH  053%=      5-min Rain = 0
KFVS 131155Z 31010KT 07/M02 A2992 RMK A01 T00731017  RH  053%=      5-min Rain = 0
KFVS 131200Z 32008KT 07/M02 A2993 RMK A01 T00731018  RH  053%=      5-min Rain = 0
KFVS 131205Z 32007KT 07/M02 A2993 RMK A01 T00711019  RH  053%=      5-min Rain = 0
KFVS 131210Z 33007KT 07/M02 A2993 RMK A01 T00681019  RH  055%=      5-min Rain = 0
KFVS 131215Z 33006KT 06/M02 A2992 RMK A01 T00641018  RH  056%=      5-min Rain = 0
KFVS 131220Z 33009KT 07/M02 A2992 RMK A01 T00661016  RH  056%=      5-min Rain = 0
KFVS 131225Z 32008KT 07/M02 A2992 RMK A01 T00701016  RH  055%=      5-min Rain = 0
KFVS 131230Z 32009KT 07/M02 A2992 RMK A01 T00701016  RH  055%=      5-min Rain = 0
KFVS 131235Z 32008KT 07/M02 A2992 RMK A01 T00721015  RH  055%=      5-min Rain = 0
KFVS 131240Z 31010KT 07/M01 A2991 RMK A01 T00731014  RH  055%=      5-min Rain = 0
KFVS 131245Z 31011KT 07/M01 A2992 RMK A01 T00741014  RH  054%=      5-min Rain = 0
KFVS 131250Z 32011KT 08/M01 A2992 RMK A01 T00761014  RH  053%=      5-min Rain = 0
KFVS 131255Z 32011KT 08/M02 A2992 RMK A01 T00771015  RH  053%=      5-min Rain = 0
KFVS 131300Z 32012KT 08/M02 A2993 RMK A01 T00771015  RH  053%=      5-min Rain = 0
KFVS 131305Z 31013KT 08/M02 A2993 RMK A01 T00791016  RH  051%=      5-min Rain = 0
KFVS 131310Z 31014KT 08/M02 A2993 RMK A01 T00801016  RH  051%=      5-min Rain = 0
KFVS 131315Z 31015KT 08/M02 A2993 RMK A01 T00811016  RH  051%=      5-min Rain = 0
KFVS 131320Z 31014KT 08/M02 A2993 RMK A01 T00801016  RH  051%=      5-min Rain = 0
KFVS 131325Z 31014KT 08/M02 A2994 RMK A01 T00781016  RH  052%=      5-min Rain = 0
KFVS 131330Z 32014KT 08/M02 A2993 RMK A01 T00771016  RH  052%=      5-min Rain = 0
KFVS 131335Z 31014KT 08/M02 A2993 RMK A01 T00791015  RH  052%=      5-min Rain = 0
KFVS 131340Z 32014KT 08/M02 A2993 RMK A01 T00801015  RH  052%=      5-min Rain = 0
KFVS 131345Z 32014KT 08/M02 A2993 RMK A01 T00811015  RH  051%=      5-min Rain = 0
KFVS 131350Z 32014KT 08/M02 A2993 RMK A01 T00831015  RH  051%=      5-min Rain = 0
KFVS 131355Z 32014KT 08/M02 A2993 RMK A01 T00821015  RH  051%=      5-min Rain = 0
KFVS 131400Z 31014KT 08/M01 A2994 RMK A01 T00821014  RH  051%=      5-min Rain = 0
KFVS 131405Z 31014KT 08/M01 A2994 RMK A01 T00821014  RH  051%=      5-min Rain = 0
KFVS 131410Z 31016KT 09/M01 A2994 RMK A01 T00861013  RH  050%=      5-min Rain = 0
KFVS 131415Z 31014KT 09/M01 A2995 RMK A01 T00871013  RH  050%=      5-min Rain = 0
KFVS 131420Z 32015G20KT 09/M01 A2994 RMK A01 T00921011  RH  049%=      5-min Rain = 0
KFVS 131425Z 32014KT 10/M01 A2995 RMK A01 T00961011  RH  048%=      5-min Rain = 0
KFVS 131430Z 32017KT 10/M01 A2995 RMK A01 T00981011  RH  047%=      5-min Rain = 0
KFVS 131435Z 31018KT 10/M01 A2995 RMK A01 T01001011  RH  046%=      5-min Rain = 0
KFVS 131440Z 32016G21KT 10/M01 A2995 RMK A01 T01001011  RH  047%=      5-min Rain = 0
KFVS 131445Z 32017G22KT 10/M01 A2995 RMK A01 T01021011  RH  046%=      5-min Rain = 0
KFVS 131450Z 32015KT 10/M01 A2995 RMK A01 T01031009  RH  046%=      5-min Rain = 0
KFVS 131455Z 32015G20KT 11/M01 A2995 RMK A01 T01051009  RH  046%=      5-min Rain = 0
KFVS 131500Z 32014KT 11/M01 A2996 RMK A01 T01061008  RH  046%=      5-min Rain = 0
KFVS 131505Z 32013KT 11/M01 A2996 RMK A01 T01091006  RH  045%=      5-min Rain = 0
KFVS 131510Z 32014KT 11/M01 A2996 RMK A01 T01121007  RH  044%=      5-min Rain = 0
KFVS 131515Z 32013G18KT 11/M01 A2996 RMK A01 T01141006  RH  044%=      5-min Rain = 0
KFVS 131520Z 31014KT 12/M01 A2995 RMK A01 T01161006  RH  043%=      5-min Rain = 0
KFVS 131525Z 31013KT 12/M01 A2995 RMK A01 T01171005  RH  043%=      5-min Rain = 0
KFVS 131530Z 31015G20KT 12/M01 A2995 RMK A01 T01181005  RH  043%=      5-min Rain = 0
KFVS 131535Z 31013KT 12/M00 A2996 RMK A01 T01201002  RH  043%=      5-min Rain = 0
KFVS 131540Z 31013KT 12/M00 A2995 RMK A01 T01211002  RH  043%=      5-min Rain = 0
KFVS 131545Z 31014KT 12/M00 A2995 RMK A01 T01211002  RH  043%=      5-min Rain = 0
KFVS 131550Z 31013KT 12/00 A2996 RMK A01 T01240000  RH  043%=      5-min Rain = 0
KFVS 131555Z 31013KT 13/00 A2997 RMK A01 T01260000  RH  042%=      5-min Rain = 0
KFVS 131600Z 31013KT 13/00 A2996 RMK A01 T01290001  RH  042%=      5-min Rain = 0
KFVS 131605Z 30014G19KT 13/00 A2996 RMK A01 T01320001  RH  041%=      5-min Rain = 0
KFVS 131610Z 30015KT 13/00 A2996 RMK A01 T01340001  RH  041%=      5-min Rain = 0
KFVS 131615Z 31014KT 14/00 A2996 RMK A01 T01380002  RH  040%=      5-min Rain = 0
KFVS 131620Z 31013KT 14/00 A2996 RMK A01 T01410004  RH  039%=      5-min Rain = 0
KFVS 131625Z 31014KT 15/00 A2995 RMK A01 T01460004  RH  038%=      5-min Rain = 0
KFVS 131630Z 31015KT 15/00 A2995 RMK A01 T01490003  RH  038%=      5-min Rain = 0
KFVS 131635Z 31014KT 15/00 A2995 RMK A01 T01520004  RH  037%=      5-min Rain = 0
KFVS 131640Z 31014KT 15/00 A2995 RMK A01 T01540003  RH  036%=      5-min Rain = 0
KFVS 131645Z 30013KT 16/00 A2994 RMK A01 T01570004  RH  036%=      5-min Rain = 0
KFVS 131650Z 30014KT 16/00 A2994 RMK A01 T01600004  RH  035%=      5-min Rain = 0
KFVS 131655Z 30017KT 16/00 A2994 RMK A01 T01620003  RH  034%=      5-min Rain = 0
KFVS 131700Z 30017G22KT 16/00 A2995 RMK A01 T01630003  RH  034%=      5-min Rain = 0
KFVS 131705Z 30017KT 16/00 A2994 RMK A01 T01640002  RH  034%=      5-min Rain = 0
KFVS 131710Z 30013KT 17/01 A2994 RMK A01 T01680006  RH  034%=      5-min Rain = 0
KFVS 131715Z 29014KT 17/01 A2994 RMK A01 T01700005  RH  033%=      5-min Rain = 0
KFVS 131720Z 29015KT 17/01 A2993 RMK A01 T01720007  RH  033%=      5-min Rain = 0
KFVS 131725Z 30016KT 17/01 A2994 RMK A01 T01720005  RH  033%=      5-min Rain = 0
KFVS 131730Z 30018KT 17/00 A2994 RMK A01 T01740004  RH  032%=      5-min Rain = 0
KFVS 131735Z 30017KT 18/01 A2993 RMK A01 T01770005  RH  032%=      5-min Rain = 0
KFVS 131740Z 30019KT 18/01 A2993 RMK A01 T01780005  RH  032%=      5-min Rain = 0
KFVS 131745Z 30017KT 18/01 A2993 RMK A01 T01810006  RH  031%=      5-min Rain = 0
KFVS 131750Z 31016KT 18/01 A2993 RMK A01 T01820006  RH  031%=      5-min Rain = 0
KFVS 131755Z 32014KT 18/01 A2993 RMK A01 T01830006  RH  031%=      5-min Rain = 0
KFVS 131800Z 32011KT 18/01 A2992 RMK A01 T01820005  RH  031%=      5-min Rain = 0
KFVS 131805Z 30012KT 19/01 A2992 RMK A01 T01870009  RH  031%=      5-min Rain = 0
KFVS 131810Z 31013KT 19/01 A2992 RMK A01 T01910009  RH  030%=      5-min Rain = 0
KFVS 131815Z 31014G19KT 19/01 A2991 RMK A01 T01930009  RH  030%=      5-min Rain = 0
KFVS 131820Z 31015KT 20/01 A2991 RMK A01 T01950009  RH  029%=      5-min Rain = 0
KFVS 131825Z 30015G20KT 20/01 A299 RMK A01 T01980010  RH  029%=      5-min Rain = 0
KFVS 131830Z 31017KT 20/01 A2991 RMK A01 T01970008  RH  029%=      5-min Rain = 0
KFVS 131835Z 31015KT 20/01 A299 RMK A01 T02010011  RH  028%=      5-min Rain = 0
KFVS 131840Z 30021G27KT 20/01 A2989 RMK A01 T02040006  RH  027%=      5-min Rain = 0
KFVS 131845Z 31017KT 20/01 A2989 RMK A01 T02040005  RH  027%=      5-min Rain = 0
KFVS 131850Z 31017KT 21/01 A2989 RMK A01 T02060008  RH  027%=      5-min Rain = 0
KFVS 131855Z 31017KT 21/01 A2988 RMK A01 T02070008  RH  027%=      5-min Rain = 0
KFVS 131900Z 31018KT 21/01 A2988 RMK A01 T02060007  RH  027%=      5-min Rain = 0
KFVS 131905Z 31016KT 21/01 A2987 RMK A01 T02090008  RH  027%=      5-min Rain = 0
KFVS 131910Z 32016KT 21/01 A2987 RMK A01 T02090007  RH  026%=      5-min Rain = 0
KFVS 131915Z 30019G24KT 21/01 A2986 RMK A01 T02110005  RH  026%=      5-min Rain = 0
KFVS 131920Z 31015KT 21/00 A2985 RMK A01 T02100004  RH  026%=      5-min Rain = 0
KFVS 131925Z 32017G22KT 21/01 A2985 RMK A01 T02140006  RH  025%=      5-min Rain = 0
KFVS 131930Z 31018KT 22/00 A2985 RMK A01 T02150003  RH  025%=      5-min Rain = 0
KFVS 131935Z 31017KT 21/00 A2985 RMK A01 T02140002  RH  025%=      5-min Rain = 0
KFVS 131940Z 32018G25KT 22/00 A2985 RMK A01 T02160002  RH  024%=      5-min Rain = 0
KFVS 131945Z 32023G31KT 22/M01 A2985 RMK A01 T02161006  RH  023%=      5-min Rain = 0
KFVS 131950Z 32021G28KT 22/M01 A2985 RMK A01 T02151007  RH  023%=      5-min Rain = 0
KFVS 131955Z 32023G29KT 22/M01 A2985 RMK A01 T02151014  RH  022%=      5-min Rain = 0
KFVS 132000Z 32024G31KT 22/M02 A2985 RMK A01 T02161015  RH  021%=      5-min Rain = 0
KFVS 132005Z 32023G28KT 22/M01 A2985 RMK A01 T02151013  RH  022%=      5-min Rain = 0
KFVS 132010Z 32022G30KT 22/M01 A2985 RMK A01 T02151012  RH  022%=      5-min Rain = 0
KFVS 132015Z 33020G26KT 22/M01 A2985 RMK A01 T02161013  RH  022%=      5-min Rain = 0
KFVS 132020Z 32019G25KT 21/M02 A2985 RMK A01 T02131015  RH  022%=      5-min Rain = 0
KFVS 132025Z 33017G22KT 21/M01 A2985 RMK A01 T02131012  RH  022%=      5-min Rain = 0
KFVS 132030Z 32017G23KT 21/M01 A2985 RMK A01 T02121010  RH  023%=      5-min Rain = 0
KFVS 132035Z 31021G27KT 21/M01 A2984 RMK A01 T02111010  RH  023%=      5-min Rain = 0
KFVS 132040Z 32021G27KT 21/M01 A2984 RMK A01 T02101011  RH  023%=      5-min Rain = 0
KFVS 132045Z 32020G27KT 21/M01 A2984 RMK A01 T02111011  RH  023%=      5-min Rain = 0
KFVS 132050Z 32020G25KT 21/M01 A2985 RMK A01 T02101013  RH  023%=      5-min Rain = 0
KFVS 132055Z 33016KT 21/M01 A2985 RMK A01 T02091011  RH  023%=      5-min Rain = 0
KFVS 132100Z 33019G24KT 21/M01 A2985 RMK A01 T02071013  RH  023%=      5-min Rain = 0
KFVS 132105Z 33019G24KT 21/M01 A2985 RMK A01 T02051014  RH  023%=      5-min Rain = 0
KFVS 132110Z 32018G23KT 21/M01 A2985 RMK A01 T02051014  RH  023%=      5-min Rain = 0
KFVS 132115Z 32018G26KT 20/M01 A2985 RMK A01 T02041014  RH  023%=      5-min Rain = 0
KFVS 132120Z 32018G23KT 20/M01 A2986 RMK A01 T02041013  RH  024%=      5-min Rain = 0
KFVS 132125Z 32017G22KT 21/M01 A2986 RMK A01 T02051011  RH  024%=      5-min Rain = 0
KFVS 132130Z 33016G22KT 21/M01 A2986 RMK A01 T02061010  RH  024%=      5-min Rain = 0
KFVS 132135Z 33015KT 21/M01 A2986 RMK A01 T02071008  RH  024%=      5-min Rain = 0
KFVS 132140Z 33016G22KT 21/M01 A2986 RMK A01 T02061010  RH  024%=      5-min Rain = 0
KFVS 132145Z 33016KT 20/M01 A2986 RMK A01 T02031010  RH  024%=      5-min Rain = 0
KFVS 132150Z 33016G22KT 20/M01 A2986 RMK A01 T02041009  RH  024%=      5-min Rain = 0
KFVS 132155Z 33016G21KT 21/M01 A2986 RMK A01 T02051009  RH  024%=      5-min Rain = 0
KFVS 132200Z 33016KT 21/M01 A2986 RMK A01 T02061008  RH  024%=      5-min Rain = 0
KFVS 132205Z 33014KT 20/M01 A2986 RMK A01 T02021010  RH  024%=      5-min Rain = 0
KFVS 132210Z 33012G18KT 20/M01 A2986 RMK A01 T01991009  RH  025%=      5-min Rain = 0
KFVS 132215Z 33013KT 20/M01 A2986 RMK A01 T01971009  RH  025%=      5-min Rain = 0
KFVS 132220Z 32013KT 20/M01 A2986 RMK A01 T01961010  RH  025%=      5-min Rain = 0
KFVS 132225Z 32012G18KT 19/M01 A2986 RMK A01 T01931010  RH  026%=      5-min Rain = 0
KFVS 132230Z 32012KT 19/M01 A2986 RMK A01 T01931011  RH  025%=      5-min Rain = 0
KFVS 132235Z 32011KT 19/M01 A2986 RMK A01 T01911011  RH  026%=      5-min Rain = 0
KFVS 132240Z 32010KT 19/M01 A2986 RMK A01 T01891010  RH  026%=      5-min Rain = 0
KFVS 132245Z 32009KT 19/M01 A2986 RMK A01 T01891009  RH  026%=      5-min Rain = 0
KFVS 132250Z 32009KT 19/M01 A2986 RMK A01 T01881011  RH  026%=      5-min Rain = 0
KFVS 132255Z 32009KT 19/M01 A2986 RMK A01 T01851011  RH  027%=      5-min Rain = 0
KFVS 132300Z 32008KT 18/M01 A2986 RMK A01 T01841009  RH  027%=      5-min Rain = 0
KFVS 132305Z 32007KT 18/M01 A2986 RMK A01 T01801007  RH  028%=      5-min Rain = 0
KFVS 132310Z 32008KT 18/M01 A2986 RMK A01 T01791008  RH  028%=      5-min Rain = 0
KFVS 132315Z 31009KT 18/M01 A2987 RMK A01 T01791008  RH  028%=      5-min Rain = 0
KFVS 132320Z 31008KT 17/M01 A2987 RMK A01 T01731006  RH  030%=      5-min Rain = 0
KFVS 132325Z 31008KT 17/M00 A2987 RMK A01 T01651004  RH  032%=      5-min Rain = 0
KFVS 132330Z 31007KT 16/M00 A2986 RMK A01 T01591003  RH  033%=      5-min Rain = 0
KFVS 132335Z 31005KT 15/M00 A2986 RMK A01 T01501003  RH  035%=      5-min Rain = 0
KFVS 132340Z 31006KT 15/M00 A2986 RMK A01 T01501003  RH  035%=      5-min Rain = 0
KFVS 132345Z 30007KT 15/M00 A2986 RMK A01 T01511004  RH  035%=      5-min Rain = 0
KFVS 132350Z 31007KT 15/M01 A2986 RMK A01 T01481005  RH  035%=      5-min Rain = 0
KFVS 132355Z 31007KT 15/M01 A2987 RMK A01 T01481006  RH  035%=      5-min Rain = 0
KFVS 140000Z 31007KT 15/M01 A2986 RMK A01 T01481008  RH  035%=      5-min Rain = 0
KFVS 140005Z 32006KT 15/M01 A2986 RMK A01 T01451009  RH  035%=      5-min Rain = 0
KFVS 140010Z 32006KT 15/M01 A2986 RMK A01 T01521013  RH  033%=      5-min Rain = 0
KFVS 140015Z 32006KT 15/M01 A2987 RMK A01 T01471013  RH  033%=      5-min Rain = 0
KFVS 140020Z 30006KT 15/M01 A2987 RMK A01 T01461013  RH  034%=      5-min Rain = 0
KFVS 140025Z 30006KT 14/M01 A2988 RMK A01 T01411012  RH  035%=      5-min Rain = 0
KFVS 140030Z 30005KT 14/M01 A2988 RMK A01 T01441013  RH  034%=      5-min Rain = 0
KFVS 140035Z 30005KT 15/M02 A2988 RMK A01 T01451016  RH  033%=      5-min Rain = 0
KFVS 140040Z 25005KT 14/M01 A2988 RMK A01 T01401014  RH  035%=      5-min Rain = 0
KFVS 140045Z 23005KT 15/M01 A2988 RMK A01 T01481011  RH  034%=      5-min Rain = 0
KFVS 140050Z 23005KT 15/M01 A2987 RMK A01 T01541013  RH  032%=      5-min Rain = 0
KFVS 140055Z 23002KT 15/M01 A2987 RMK A01 T01531013  RH  032%=      5-min Rain = 0
KFVS 140100Z 26001KT 15/M01 A2988 RMK A01 T01531014  RH  032%=      5-min Rain = 0
KFVS 140105Z 23003KT 15/M01 A2988 RMK A01 T01501014  RH  033%=      5-min Rain = 0
KFVS 140110Z 23004KT 16/M02 A2988 RMK A01 T01571015  RH  031%=      5-min Rain = 0
KFVS 140115Z 24003KT 15/M02 A2988 RMK A01 T01511015  RH  032%=      5-min Rain = 0
KFVS 140120Z 24004KT 15/M01 A2988 RMK A01 T01501014  RH  033%=      5-min Rain = 0
KFVS 140125Z 24004KT 15/M02 A2988 RMK A01 T01541016  RH  031%=      5-min Rain = 0
KFVS 140130Z 26003KT 15/M02 A2989 RMK A01 T01471016  RH  033%=      5-min Rain = 0
KFVS 140135Z 27002KT 13/M02 A2989 RMK A01 T01301015  RH  037%=      5-min Rain = 0
KFVS 140140Z 27003KT 12/M01 A2989 RMK A01 T01161013  RH  041%=      5-min Rain = 0
KFVS 140145Z 26004KT 12/M01 A2989 RMK A01 T01201012  RH  040%=      5-min Rain = 0
KFVS 140150Z 25004KT 14/M01 A2989 RMK A01 T01421012  RH  035%=      5-min Rain = 0
KFVS 140155Z 26004KT 16/M02 A2989 RMK A01 T01551015  RH  031%=      5-min Rain = 0
KFVS 140200Z 26004KT 16/M02 A2989 RMK A01 T01561015  RH  031%=      5-min Rain = 0
KFVS 140205Z 25003KT 16/M02 A2989 RMK A01 T01591016  RH  030%=      5-min Rain = 0
KFVS 140210Z 25003KT 16/M02 A299 RMK A01 T01621018  RH  029%=      5-min Rain = 0
KFVS 140215Z 25003KT 17/M02 A299 RMK A01 T01661020  RH  028%=      5-min Rain = 0
KFVS 140220Z 24003KT 17/M02 A299 RMK A01 T01701023  RH  027%=      5-min Rain = 0
KFVS 140225Z 27004KT 16/M02 A299 RMK A01 T01641021  RH  029%=      5-min Rain = 0
KFVS 140230Z 28006KT 13/M01 A299 RMK A01 T01321013  RH  037%=      5-min Rain = 0
KFVS 140235Z 30008KT 14/M01 A299 RMK A01 T01421012  RH  035%=      5-min Rain = 0
KFVS 140240Z 30008KT 14/M01 A299 RMK A01 T01371010  RH  037%=      5-min Rain = 0
KFVS 140245Z 29009KT 14/M01 A299 RMK A01 T01371010  RH  037%=      5-min Rain = 0
KFVS 140250Z 29010KT 14/M01 A299 RMK A01 T01371012  RH  036%=      5-min Rain = 0
KFVS 140255Z 29011KT 14/M01 A299 RMK A01 T01361011  RH  036%=      5-min Rain = 0
KFVS 140300Z 29011KT 14/M01 A299 RMK A01 T01351011  RH  037%=      5-min Rain = 0
KFVS 140305Z 30012KT 13/M01 A299 RMK A01 T01341011  RH  037%=      5-min Rain = 0
KFVS 140310Z 29011KT 13/M01 A299 RMK A01 T01331012  RH  037%=      5-min Rain = 0
KFVS 140315Z 28011KT 13/M01 A2991 RMK A01 T01291013  RH  038%=      5-min Rain = 0
KFVS 140320Z 28011KT 13/M01 A299 RMK A01 T01321014  RH  037%=      5-min Rain = 0
KFVS 140325Z 28010KT 13/M02 A2989 RMK A01 T01331016  RH  036%=      5-min Rain = 0
KFVS 140330Z 29011KT 13/M02 A299 RMK A01 T01301016  RH  037%=      5-min Rain = 0
KFVS 140335Z 29010KT 13/M02 A299 RMK A01 T01271017  RH  037%=      5-min Rain = 0
KFVS 140340Z 29009KT 12/M02 A299 RMK A01 T01231016  RH  038%=      5-min Rain = 0
KFVS 140345Z 29008KT 12/M02 A299 RMK A01 T01161015  RH  041%=      5-min Rain = 0
KFVS 140350Z 29009KT 12/M02 A299 RMK A01 T01201016  RH  039%=      5-min Rain = 0
KFVS 140355Z 29010KT 12/M02 A299 RMK A01 T01211017  RH  039%=      5-min Rain = 0
KFVS 140400Z 29010KT 12/M02 A2989 RMK A01 T01201017  RH  039%=      5-min Rain = 0
KFVS 140405Z 29010KT 12/M02 A2989 RMK A01 T01171017  RH  040%=      5-min Rain = 0
KFVS 140410Z 29009KT 11/M02 A299 RMK A01 T01121016  RH  041%=      5-min Rain = 0
KFVS 140415Z 32008KT 10/M02 A299 RMK A01 T01031015  RH  044%=      5-min Rain = 0
KFVS 140420Z 33010KT 10/M01 A299 RMK A01 T00951013  RH  047%=      5-min Rain = 0
KFVS 140425Z 34011KT 11/M01 A2991 RMK A01 T01091013  RH  043%=      5-min Rain = 0
KFVS 140430Z 33011KT 12/M02 A2991 RMK A01 T01211017  RH  039%=      5-min Rain = 0
KFVS 140435Z 34010KT 11/M02 A2991 RMK A01 T01121017  RH  041%=      5-min Rain = 0
KFVS 140440Z 34009KT 11/M02 A2991 RMK A01 T01051016  RH  043%=      5-min Rain = 0
KFVS 140445Z 01008KT 10/M02 A2991 RMK A01 T01001015  RH  045%=      5-min Rain = 0
KFVS 140450Z 01009KT 10/M02 A2991 RMK A01 T01021016  RH  044%=      5-min Rain = 0
KFVS 140455Z 01007KT 10/M02 A2991 RMK A01 T01031017  RH  043%=      5-min Rain = 0
KFVS 140500Z 00006KT 10/M02 A2991 RMK A01 T00991018  RH  044%=      5-min Rain = 0
KFVS 140505Z 01005KT 10/M02 A2991 RMK A01 T00961017  RH  046%=      5-min Rain = 0
KFVS 140510Z 02006KT 10/M02 A2991 RMK A01 T00971020  RH  044%=      5-min Rain = 0
KFVS 140515Z 01007KT 11/M02 A299 RMK A01 T01091018  RH  042%=      5-min Rain = 0
KFVS 140520Z 36006KT 12/M02 A299 RMK A01 T01161019  RH  039%=      5-min Rain = 0
KFVS 140525Z 35007KT 12/M02 A299 RMK A01 T01201019  RH  038%=      5-min Rain = 0
KFVS 140530Z 33006KT 12/M02 A299 RMK A01 T01181019  RH  039%=      5-min Rain = 0
KFVS 140535Z 32006KT 11/M02 A299 RMK A01 T01131020  RH  040%=      5-min Rain = 0
KFVS 140540Z 32005KT 11/M02 A299 RMK A01 T01081019  RH  041%=      5-min Rain = 0
KFVS 140545Z 31005KT 12/M02 A299 RMK A01 T01171020  RH  039%=      5-min Rain = 0
KFVS 140550Z 30005KT 12/M02 A2991 RMK A01 T01151021  RH  039%=      5-min Rain = 0
KFVS 140555Z 30006KT 11/M02 A299 RMK A01 T01071019  RH  042%=      5-min Rain = 0

Page generated in 0.0099 seconds.